createdAt,value
2022-12-11T00:01:46.142Z,75.30
2022-12-11T00:04:13.201Z,64.18
2022-12-11T00:06:40.328Z,89.50
2022-12-11T00:09:07.263Z,61.20
2022-12-11T00:11:34.292Z,45.97
2022-12-11T00:14:01.398Z,46.78
2022-12-11T00:16:28.490Z,57.25
2022-12-11T00:18:55.808Z,84.72
2022-12-11T00:21:22.949Z,115.20
2022-12-11T00:23:50.220Z,193.88
2022-12-11T00:26:17.807Z,155.27
2022-12-11T00:28:45.335Z,242.18
2022-12-11T00:31:19.704Z,145.73
2022-12-11T00:33:49.428Z,213.52
2022-12-11T00:36:20.235Z,87.20
2022-12-11T00:38:48.963Z,156.38
2022-12-11T00:41:16.354Z,365.08
2022-12-11T00:43:43.517Z,422.50
2022-12-11T00:46:11.139Z,326.20
2022-12-11T00:48:38.238Z,218.55
2022-12-11T00:51:05.910Z,390.55
2022-12-11T00:53:33.467Z,281.30
2022-12-11T00:56:00.587Z,540.15
2022-12-11T00:58:27.835Z,289.02
2022-12-11T01:00:54.891Z,232.27
2022-12-11T01:03:22.041Z,144.48
2022-12-11T01:05:54.201Z,478.70
2022-12-11T01:08:21.744Z,119.53
2022-12-11T01:10:49.049Z,131.90
2022-12-11T01:13:16.601Z,305.42
2022-12-11T01:15:45.816Z,267.77
2022-12-11T01:18:15.257Z,289.00
2022-12-11T01:20:43.884Z,122.90
2022-12-11T01:23:13.353Z,178.40
2022-12-11T01:25:41.942Z,333.45
2022-12-11T01:28:09.204Z,403.08
2022-12-11T01:30:37.122Z,515.08
2022-12-11T01:33:04.234Z,266.48
2022-12-11T01:35:31.385Z,439.85
2022-12-11T01:37:59.448Z,201.27
2022-12-11T01:40:26.920Z,596.67
2022-12-11T01:42:54.139Z,362.42
2022-12-11T01:45:32.878Z,431.30
2022-12-11T01:48:11.145Z,264.00
2022-12-11T01:50:53.681Z,371.75
2022-12-11T01:53:25.486Z,374.58
2022-12-11T01:55:55.584Z,271.40
2022-12-11T01:58:27.799Z,539.28
2022-12-11T02:00:55.913Z,775.47
2022-12-11T02:03:23.221Z,496.50
2022-12-11T02:05:50.445Z,411.08
2022-12-11T02:08:18.092Z,592.10
2022-12-11T02:11:10.832Z,446.48
2022-12-11T02:14:05.457Z,445.02
2022-12-11T02:16:52.625Z,396.20
2022-12-11T02:19:41.042Z,472.50
2022-12-11T02:22:13.938Z,392.00
2022-12-11T02:24:57.723Z,330.88
2022-12-11T02:27:36.526Z,459.38
2022-12-11T02:30:09.331Z,606.13
2022-12-11T02:32:43.495Z,523.17
2022-12-11T02:35:16.252Z,424.92
2022-12-11T02:37:46.695Z,544.75
2022-12-11T02:42:44.522Z,412.85
2022-12-11T02:45:13.676Z,431.98
2022-12-11T02:47:45.016Z,293.23
2022-12-11T02:50:16.066Z,501.77
2022-12-11T02:52:44.690Z,332.85
2022-12-11T02:55:15.139Z,478.55
2022-12-11T02:57:58.257Z,248.98
2022-12-11T03:00:25.192Z,612.78
2022-12-11T03:02:52.497Z,381.13
2022-12-11T03:05:19.582Z,599.13
2022-12-11T03:07:46.776Z,702.33
2022-12-11T03:10:18.954Z,702.17
2022-12-11T03:12:53.393Z,432.25
2022-12-11T03:15:27.443Z,374.20
2022-12-11T03:18:19.068Z,290.52
2022-12-11T03:21:06.346Z,418.33
2022-12-11T03:23:54.940Z,343.67
2022-12-11T03:26:24.859Z,533.97
2022-12-11T03:29:04.965Z,277.40
2022-12-11T03:31:40.537Z,466.88
2022-12-11T03:34:19.867Z,284.20
2022-12-11T03:36:49.242Z,639.13
2022-12-11T03:39:22.420Z,297.42
2022-12-11T03:41:51.955Z,377.70
2022-12-11T03:44:20.678Z,552.40
2022-12-11T03:46:49.308Z,267.33
2022-12-11T03:49:26.833Z,388.13
2022-12-11T03:51:56.652Z,536.95
2022-12-11T03:54:25.059Z,792.30
2022-12-11T03:56:55.720Z,670.13
2022-12-11T03:59:23.011Z,472.70
2022-12-11T04:01:50.493Z,365.83
2022-12-11T04:04:17.601Z,412.33
2022-12-11T04:06:44.658Z,496.73
2022-12-11T04:09:11.857Z,519.75
2022-12-11T04:11:39.692Z,396.48
2022-12-11T04:14:29.133Z,421.58
2022-12-11T04:16:57.259Z,314.30
2022-12-11T04:19:43.820Z,390.52
2022-12-11T04:22:33.933Z,329.55
2022-12-11T04:25:02.799Z,462.48
2022-12-11T04:27:49.097Z,527.97
2022-12-11T04:30:22.464Z,614.63
2022-12-11T04:32:50.197Z,643.40
2022-12-11T04:35:18.107Z,457.08
2022-12-11T04:37:45.095Z,343.52
2022-12-11T04:40:15.021Z,573.70
2022-12-11T04:42:42.152Z,393.95
2022-12-11T04:45:10.231Z,503.83
2022-12-11T04:47:39.279Z,380.63
2022-12-11T04:50:09.192Z,578.40
2022-12-11T04:52:36.833Z,401.00
2022-12-11T04:55:05.822Z,484.05
2022-12-11T04:57:32.784Z,615.78
2022-12-11T05:00:00.223Z,521.35
2022-12-11T05:02:27.327Z,625.75
2022-12-11T05:04:54.273Z,433.48
2022-12-11T05:07:21.352Z,554.17
2022-12-11T05:09:48.380Z,475.85
2022-12-11T05:12:15.291Z,655.17
2022-12-11T05:14:42.283Z,495.70
2022-12-11T05:17:09.287Z,544.20
2022-12-11T05:19:36.333Z,638.35
2022-12-11T05:22:03.307Z,272.25
2022-12-11T05:24:30.379Z,371.80
2022-12-11T05:26:57.312Z,537.72
2022-12-11T05:29:24.303Z,410.95
2022-12-11T05:31:51.500Z,254.73
2022-12-11T05:34:18.540Z,504.80
2022-12-11T05:36:45.656Z,624.30
2022-12-11T05:39:12.799Z,406.55
2022-12-11T05:41:40.394Z,370.23
2022-12-11T05:44:07.362Z,571.38
2022-12-11T05:46:34.440Z,387.85
2022-12-11T05:49:02.706Z,418.67
2022-12-11T05:51:30.874Z,733.17
2022-12-11T05:53:58.375Z,566.53
2022-12-11T05:56:34.201Z,641.55
2022-12-11T05:59:02.490Z,454.27
2022-12-11T06:01:39.109Z,681.33
2022-12-11T06:04:07.352Z,557.17
2022-12-11T06:06:35.330Z,248.57
2022-12-11T06:09:04.345Z,507.88
2022-12-11T06:11:34.330Z,219.60
2022-12-11T06:14:03.231Z,243.05
2022-12-11T06:16:30.272Z,535.03
2022-12-11T06:18:58.607Z,501.67
2022-12-11T06:21:32.184Z,363.42
2022-12-11T06:24:02.292Z,246.65
2022-12-11T06:26:30.015Z,770.75
2022-12-11T06:28:57.144Z,530.88
2022-12-11T06:31:25.688Z,259.98
2022-12-11T06:33:52.841Z,478.67
2022-12-11T06:36:22.187Z,268.02
2022-12-11T06:38:49.905Z,161.00
2022-12-11T06:41:17.453Z,130.73
2022-12-11T06:43:45.272Z,184.13
2022-12-11T06:46:16.660Z,164.30
2022-12-11T06:48:44.573Z,262.45
2022-12-11T06:51:14.729Z,160.00
2022-12-11T06:53:42.441Z,232.73
2022-12-11T06:56:15.437Z,115.15
2022-12-11T06:58:44.226Z,327.13
2022-12-11T07:01:21.724Z,124.88
2022-12-11T07:03:49.690Z,108.60
2022-12-11T07:06:17.495Z,95.50
2022-12-11T07:08:44.728Z,117.80
2022-12-11T07:11:14.341Z,101.15
2022-12-11T07:13:45.432Z,78.10
2022-12-11T07:16:14.854Z,86.28
2022-12-11T07:18:44.356Z,80.85
2022-12-11T07:21:13.627Z,83.68
2022-12-11T07:23:41.479Z,84.78
2022-12-11T07:26:14.316Z,65.97
2022-12-11T07:28:42.440Z,79.30
2022-12-11T07:31:18.991Z,70.60
2022-12-11T07:33:46.227Z,82.22
2022-12-11T07:36:14.538Z,79.30
2022-12-11T07:38:41.541Z,68.00
2022-12-11T07:41:11.365Z,59.90
2022-12-11T07:43:38.596Z,61.22
2022-12-11T07:46:08.912Z,71.93
2022-12-11T07:48:37.523Z,70.13
2022-12-11T07:51:17.715Z,58.67
2022-12-11T07:53:46.941Z,59.03
2022-12-11T07:56:16.438Z,60.90
2022-12-11T07:58:44.549Z,61.33
2022-12-11T08:01:13.777Z,64.70
2022-12-11T08:03:41.063Z,107.32
2022-12-11T08:06:08.453Z,67.47
2022-12-11T08:08:35.538Z,50.38
2022-12-11T08:11:04.136Z,52.30
2022-12-11T08:13:32.040Z,55.17
2022-12-11T08:15:59.809Z,58.13
2022-12-11T08:18:26.894Z,56.22
2022-12-11T08:20:56.357Z,58.53
2022-12-11T08:23:23.361Z,63.42
2022-12-11T08:25:50.380Z,51.70
2022-12-11T08:28:17.480Z,54.38
2022-12-11T08:30:45.037Z,49.78
2022-12-11T08:33:14.743Z,69.40
2022-12-11T08:35:42.391Z,63.55
2022-12-11T08:38:09.698Z,61.63
2022-12-11T08:40:36.893Z,60.65
2022-12-11T08:43:04.168Z,59.35
2022-12-11T08:45:33.732Z,53.50
2022-12-11T08:48:02.595Z,63.20
2022-12-11T08:50:30.002Z,56.60
2022-12-11T08:53:00.016Z,56.90
2022-12-11T08:55:27.327Z,52.78
2022-12-11T08:57:54.332Z,53.05
2022-12-11T09:00:21.819Z,53.47
2022-12-11T09:02:49.030Z,62.10
2022-12-11T09:05:16.309Z,49.22
2022-12-11T09:07:43.575Z,49.30
2022-12-11T09:10:10.743Z,52.05
2022-12-11T09:12:38.105Z,57.22
2022-12-11T09:15:05.930Z,57.85
2022-12-11T09:17:35.532Z,58.92
2022-12-11T09:20:03.288Z,55.33
2022-12-11T09:22:33.617Z,49.90
2022-12-11T09:25:03.702Z,63.05
2022-12-11T09:27:31.203Z,103.25
2022-12-11T09:29:58.197Z,51.40
2022-12-11T09:32:25.251Z,59.78
2022-12-11T09:34:52.245Z,55.33
2022-12-11T09:37:22.315Z,47.72
2022-12-11T09:39:49.376Z,45.97
2022-12-11T09:42:38.707Z,56.85
2022-12-11T09:45:11.170Z,50.72
2022-12-11T09:47:44.328Z,52.05
2022-12-11T09:50:23.369Z,52.20
2022-12-11T09:53:13.812Z,46.53
2022-12-11T09:58:43.031Z,50.33
2022-12-11T10:01:18.626Z,42.63
2022-12-11T10:04:07.143Z,49.72
2022-12-11T10:07:02.434Z,46.80
2022-12-11T10:09:56.090Z,49.53
2022-12-11T10:12:45.943Z,42.85
2022-12-11T10:15:25.633Z,49.55
2022-12-11T10:18:04.674Z,38.85
2022-12-11T10:20:39.266Z,49.35
2022-12-11T10:23:15.441Z,44.58
2022-12-11T10:25:50.983Z,38.10
2022-12-11T10:28:20.495Z,38.63
2022-12-11T10:30:56.615Z,45.17
2022-12-11T10:33:44.333Z,41.13
2022-12-11T10:36:18.113Z,41.00
2022-12-11T10:38:46.984Z,38.25
2022-12-11T10:41:24.779Z,30.55
2022-12-11T10:43:53.489Z,37.72
2022-12-11T10:46:26.388Z,41.38
2022-12-11T10:48:57.526Z,39.38
2022-12-11T10:51:32.254Z,50.67
2022-12-11T10:54:17.609Z,29.17
2022-12-11T10:56:48.722Z,43.78
2022-12-11T10:59:49.876Z,41.80
2022-12-11T11:02:28.560Z,39.17
2022-12-11T11:04:58.569Z,25.83
2022-12-11T11:07:34.828Z,48.53
2022-12-11T11:10:17.869Z,36.47
2022-12-11T11:12:48.418Z,44.47
2022-12-11T11:15:19.999Z,39.33
2022-12-11T11:17:55.784Z,33.85
2022-12-11T11:20:27.135Z,33.30
2022-12-11T11:22:57.921Z,30.30
2022-12-11T11:25:27.808Z,17.88
2022-12-11T11:28:01.164Z,34.13
2022-12-11T11:30:31.301Z,33.25
2022-12-11T11:33:19.598Z,20.48
2022-12-11T11:35:58.906Z,25.80
2022-12-11T11:38:52.380Z,30.23
2022-12-11T11:41:25.643Z,21.00
2022-12-11T11:43:57.957Z,30.90
2022-12-11T11:46:43.593Z,27.02
2022-12-11T11:49:23.197Z,26.08
2022-12-11T11:52:01.350Z,25.42
2022-12-11T11:54:39.787Z,30.30
2022-12-11T11:57:29.743Z,31.40
2022-12-11T12:00:13.362Z,32.92
2022-12-11T12:02:41.637Z,30.63
2022-12-11T12:05:15.956Z,30.63
2022-12-11T12:08:00.287Z,30.35
2022-12-11T12:10:44.461Z,28.33
2022-12-11T12:13:49.113Z,27.85
2022-12-11T12:16:52.773Z,24.05
2022-12-11T12:19:42.721Z,31.42
2022-12-11T12:22:28.230Z,33.38
2022-12-11T12:25:24.906Z,26.75
2022-12-11T12:28:31.902Z,21.10
2022-12-11T12:31:33.343Z,28.75
2022-12-11T12:34:35.514Z,29.85
2022-12-11T12:37:18.005Z,29.10
2022-12-11T12:40:17.288Z,27.83
2022-12-11T12:42:44.225Z,31.33
2022-12-11T12:45:23.958Z,31.30
2022-12-11T12:47:53.617Z,34.03
2022-12-11T12:50:36.993Z,35.20
2022-12-11T12:53:06.581Z,26.48
2022-12-11T12:55:35.992Z,22.10
2022-12-11T12:58:09.340Z,37.13
2022-12-11T13:00:44.171Z,31.30
2022-12-11T13:03:17.471Z,30.27
2022-12-11T13:06:08.441Z,26.63
2022-12-11T13:09:20.903Z,24.10
2022-12-11T13:11:58.084Z,21.63
2022-12-11T13:14:34.273Z,24.73
2022-12-11T13:17:22.484Z,26.02
2022-12-11T13:19:53.216Z,20.40
2022-12-11T13:22:25.031Z,27.90
2022-12-11T13:25:17.110Z,22.08
2022-12-11T13:27:44.892Z,21.23
2022-12-11T13:30:15.145Z,24.58
2022-12-11T13:32:57.391Z,25.58
2022-12-11T13:35:25.341Z,23.30
2022-12-11T13:37:59.917Z,26.25
2022-12-11T13:40:33.548Z,27.60
2022-12-11T13:43:05.862Z,28.27
2022-12-11T13:45:43.523Z,29.20
2022-12-11T13:48:21.541Z,29.48
2022-12-11T13:50:51.107Z,27.13
2022-12-11T13:53:20.312Z,26.25
2022-12-11T13:55:57.398Z,23.73
2022-12-11T13:58:25.083Z,24.15
2022-12-11T14:00:59.824Z,21.02
2022-12-11T14:03:31.278Z,26.73
2022-12-11T14:05:59.724Z,21.55
2022-12-11T14:08:34.261Z,22.90
2022-12-11T14:11:02.154Z,27.25
2022-12-11T14:13:36.564Z,27.33
2022-12-11T14:16:04.618Z,22.55
2022-12-11T14:18:34.113Z,30.20
2022-12-11T14:21:06.378Z,23.60
2022-12-11T14:23:35.824Z,24.95
2022-12-11T14:26:25.473Z,21.30
2022-12-11T14:28:53.241Z,27.30
2022-12-11T14:31:37.709Z,23.77
2022-12-11T14:34:15.832Z,23.50
2022-12-11T14:36:44.218Z,44.92
2022-12-11T14:39:21.592Z,38.65
2022-12-11T14:41:48.505Z,30.75
2022-12-11T14:44:18.000Z,29.77
2022-12-11T14:46:52.762Z,25.80
2022-12-11T14:49:31.677Z,25.27
2022-12-11T14:52:00.216Z,33.38
2022-12-11T14:54:36.161Z,24.45
2022-12-11T14:57:06.777Z,20.02
2022-12-11T14:59:41.450Z,23.00
2022-12-11T15:02:33.004Z,19.92
2022-12-11T15:05:02.163Z,23.95
2022-12-11T15:07:30.981Z,27.33
2022-12-11T15:09:57.970Z,25.40
2022-12-11T15:12:26.038Z,22.80
2022-12-11T15:15:00.889Z,19.38
2022-12-11T15:17:33.846Z,28.88
2022-12-11T15:20:11.932Z,24.77
2022-12-11T15:22:43.632Z,16.42
2022-12-11T15:25:26.977Z,24.50
2022-12-11T15:27:57.926Z,20.02
2022-12-11T15:30:27.889Z,19.70
2022-12-11T15:33:03.965Z,14.68
2022-12-11T15:35:31.366Z,20.60
2022-12-11T15:37:58.969Z,19.95
2022-12-11T15:40:34.967Z,21.85
2022-12-11T15:43:03.606Z,19.92
2022-12-11T15:45:30.852Z,17.75
2022-12-11T15:47:59.669Z,25.35
2022-12-11T15:50:29.416Z,21.35
2022-12-11T15:52:57.303Z,23.35
2022-12-11T15:55:27.075Z,19.65
2022-12-11T15:58:01.373Z,26.65
2022-12-11T16:00:28.680Z,26.98
2022-12-11T16:03:00.017Z,27.52
2022-12-11T16:05:27.672Z,23.73
2022-12-11T16:07:56.631Z,23.90
2022-12-11T16:10:23.635Z,18.38
2022-12-11T16:12:50.833Z,23.90
2022-12-11T16:15:23.523Z,21.73
2022-12-11T16:18:09.666Z,19.58
2022-12-11T16:20:39.286Z,12.35
2022-12-11T16:23:06.921Z,22.88
2022-12-11T16:25:34.861Z,24.17
2022-12-11T16:28:02.085Z,22.52
2022-12-11T16:30:29.931Z,23.05
2022-12-11T16:32:57.218Z,20.83
2022-12-11T16:35:24.406Z,21.23
2022-12-11T16:37:53.442Z,14.45
2022-12-11T16:40:24.429Z,15.63
2022-12-11T16:42:52.143Z,20.77
2022-12-11T16:45:26.719Z,16.25
2022-12-11T16:48:03.050Z,13.85
2022-12-11T16:50:43.161Z,18.85
2022-12-11T16:53:17.733Z,12.25
2022-12-11T16:55:45.034Z,10.32
2022-12-11T16:58:16.445Z,15.88
2022-12-11T17:00:43.644Z,15.68
2022-12-11T17:03:10.820Z,17.20
2022-12-11T17:05:42.809Z,14.60
2022-12-11T17:08:11.734Z,14.48
2022-12-11T17:10:40.916Z,15.00
2022-12-11T17:13:08.206Z,16.13
2022-12-11T17:18:13.812Z,13.15
2022-12-11T17:20:47.886Z,13.48
2022-12-11T17:23:26.394Z,16.38
2022-12-11T17:26:05.297Z,16.52
2022-12-11T17:28:38.163Z,12.30
2022-12-11T17:31:13.439Z,16.08
2022-12-11T17:33:42.069Z,16.05
2022-12-11T17:36:13.463Z,15.35
2022-12-11T17:38:40.970Z,15.82
2022-12-11T17:41:09.569Z,14.75
2022-12-11T17:43:37.008Z,12.85
2022-12-11T17:46:07.748Z,9.75
2022-12-11T17:48:37.922Z,12.60
2022-12-11T17:51:07.755Z,11.88
2022-12-11T17:53:38.753Z,13.40
2022-12-11T17:56:08.618Z,14.07
2022-12-11T17:58:36.408Z,13.55
2022-12-11T18:01:08.325Z,16.40
2022-12-11T18:03:37.082Z,14.77
2022-12-11T18:06:10.643Z,10.60
2022-12-11T18:08:39.051Z,9.48
2022-12-11T18:11:11.952Z,10.35
2022-12-11T18:13:39.632Z,12.30
2022-12-11T18:16:11.571Z,9.02
2022-12-11T18:18:40.007Z,13.98
2022-12-11T18:21:07.224Z,15.15
2022-12-11T18:23:34.970Z,9.57
2022-12-11T18:26:02.316Z,13.27
2022-12-11T18:28:32.205Z,11.40
2022-12-11T18:31:03.977Z,14.52
2022-12-11T18:33:32.341Z,8.55
2022-12-11T18:35:59.529Z,8.45
2022-12-11T18:38:26.920Z,8.15
2022-12-11T18:40:54.169Z,10.25
2022-12-11T18:43:21.294Z,10.05
2022-12-11T18:45:52.034Z,10.65
2022-12-11T18:48:19.231Z,7.57
2022-12-11T18:50:48.120Z,13.77
2022-12-11T18:53:17.929Z,10.63
2022-12-11T18:56:05.226Z,11.38
2022-12-11T19:08:17.551Z,12.90
2022-12-11T19:17:25.026Z,12.75
2022-12-11T19:20:19.037Z,14.57
2022-12-11T19:26:14.168Z,18.90
2022-12-11T19:28:48.493Z,21.15
2022-12-11T19:34:33.326Z,24.40
2022-12-11T19:37:20.250Z,21.33
2022-12-11T19:39:51.490Z,28.33
2022-12-11T19:42:20.189Z,13.13
2022-12-11T19:45:04.148Z,17.20
2022-12-11T19:47:35.358Z,27.92
2022-12-11T19:50:16.548Z,25.65
2022-12-11T19:53:05.559Z,24.85
2022-12-11T19:55:33.311Z,29.80
2022-12-11T19:58:00.475Z,20.65
2022-12-11T20:00:28.687Z,34.30
2022-12-11T20:02:59.927Z,29.85
2022-12-11T20:05:27.005Z,16.08
2022-12-11T20:07:59.491Z,37.25
2022-12-11T20:10:39.639Z,31.30
2022-12-11T20:13:07.205Z,35.55
2022-12-11T20:15:34.538Z,31.50
2022-12-11T20:18:02.176Z,28.95
2022-12-11T20:20:30.213Z,44.45
2022-12-11T20:23:16.838Z,48.95
2022-12-11T20:26:37.257Z,35.80
2022-12-11T20:29:16.277Z,39.55
2022-12-11T20:32:01.358Z,36.80
2022-12-11T20:34:32.102Z,49.08
2022-12-11T20:37:00.681Z,33.83
2022-12-11T20:39:27.741Z,35.90
2022-12-11T20:41:57.693Z,25.42
2022-12-11T20:44:47.185Z,48.75
2022-12-11T20:47:16.286Z,44.95
2022-12-11T20:49:43.936Z,43.53
2022-12-11T20:52:10.947Z,38.03
2022-12-11T20:54:41.112Z,25.95
2022-12-11T20:57:08.626Z,45.10
2022-12-11T20:59:36.743Z,29.60
2022-12-11T21:02:05.884Z,37.35
2022-12-11T21:04:33.383Z,32.63
2022-12-11T21:07:01.036Z,42.90
2022-12-11T21:09:29.459Z,62.00
2022-12-11T21:12:00.451Z,71.53
2022-12-11T21:14:29.247Z,66.22
2022-12-11T21:16:56.503Z,61.95
2022-12-11T21:19:24.540Z,69.60
2022-12-11T21:21:52.860Z,49.30
2022-12-11T21:24:26.890Z,55.75
2022-12-11T21:26:56.504Z,53.40
2022-12-11T21:29:25.430Z,59.53
2022-12-11T21:31:53.325Z,50.90
2022-12-11T21:34:25.318Z,45.95
2022-12-11T21:36:57.069Z,54.38
2022-12-11T21:39:26.249Z,73.53
2022-12-11T21:41:53.507Z,83.15
2022-12-11T21:47:09.918Z,64.95
2022-12-11T21:49:38.194Z,74.68
2022-12-11T21:52:05.718Z,47.95
2022-12-11T21:54:32.864Z,91.35
2022-12-11T21:57:00.134Z,71.82
2022-12-11T21:59:28.730Z,81.85
2022-12-11T22:01:55.855Z,68.25
2022-12-11T22:04:22.918Z,56.22
2022-12-11T22:06:50.141Z,61.00
2022-12-11T22:09:18.145Z,49.33
2022-12-11T22:11:46.447Z,40.95
2022-12-11T22:14:15.633Z,56.85
2022-12-11T22:16:43.567Z,75.05
2022-12-11T22:19:10.850Z,38.83
2022-12-11T22:21:38.279Z,80.80
2022-12-11T22:24:05.579Z,48.38
2022-12-11T22:26:33.153Z,65.28
2022-12-11T22:29:00.200Z,56.78
2022-12-11T22:31:28.351Z,26.48
2022-12-11T22:33:55.727Z,57.00
2022-12-11T22:36:25.433Z,51.95
2022-12-11T22:38:52.844Z,53.53
2022-12-11T22:41:27.921Z,62.08
2022-12-11T22:43:56.068Z,72.93
2022-12-11T22:46:25.603Z,53.88
2022-12-11T22:48:53.898Z,41.13
2022-12-11T22:51:21.577Z,56.10
2022-12-11T22:53:48.979Z,35.42
2022-12-11T22:56:16.693Z,35.40
2022-12-11T22:58:43.838Z,49.13
2022-12-11T23:01:18.403Z,40.28
2022-12-11T23:03:46.558Z,31.77
2022-12-11T23:06:16.093Z,34.42
2022-12-11T23:08:44.145Z,51.15
2022-12-11T23:11:21.519Z,55.42
2022-12-11T23:13:48.633Z,55.63
2022-12-11T23:16:16.108Z,43.58
2022-12-11T23:18:43.372Z,40.33
2022-12-11T23:21:11.635Z,40.25
2022-12-11T23:23:39.068Z,30.30
2022-12-11T23:26:08.834Z,30.08
2022-12-11T23:28:36.357Z,38.45
2022-12-11T23:31:03.654Z,23.88
2022-12-11T23:33:31.113Z,28.73
2022-12-11T23:35:59.482Z,46.00
2022-12-11T23:38:27.833Z,32.58
2022-12-11T23:40:56.150Z,36.92
2022-12-11T23:43:23.429Z,44.03
2022-12-11T23:45:50.569Z,46.63
2022-12-11T23:48:18.022Z,50.97
2022-12-11T23:50:46.167Z,23.30
2022-12-11T23:53:13.320Z,28.42
2022-12-11T23:55:42.648Z,28.40
2022-12-11T23:58:10.937Z,36.95
